Epiphany, South Dakota
Current Conditions -  °F | °C
As of 8:35 AM on Saturday 25 Oct 2014 (Local Time) from KMDS Reporting Station
Clear Clear  
Wind Chill: 36°   Ceiling: Unl
Heat Index: 41°   Visibility: 10mi
Dew Point: 37°   Wind: 7mph
Humidity: 87%   Direction: 330°NNW
Pressure: 30.12"   Gusts: NA
Location:  43.8924°N, 97.5502°W
Report Text: KMDS 251335Z AUTO 33006KT 10SM CLR 05/03 A3012 RMK AO2
Loading
Personal Weather Stations






























Interactive Weather Map
Tropical Storm Tracking
New forecast layout! Learn more

10-Day Weather Forecast

Advertisements
Track Severe Weather on mobile